createdAt,value
2019-05-18T00:00:56.494Z,11.08
2019-05-18T00:03:31.273Z,13.13
2019-05-18T00:06:05.648Z,13.18
2019-05-18T00:08:40.162Z,10.98
2019-05-18T00:11:14.516Z,13.08
2019-05-18T00:13:48.918Z,11.75
2019-05-18T00:16:23.312Z,12.28
2019-05-18T00:18:57.724Z,12.65
2019-05-18T00:21:31.790Z,14.10
2019-05-18T00:24:06.165Z,12.15
2019-05-18T00:26:40.603Z,12.60
2019-05-18T00:29:15.043Z,13.15
2019-05-18T00:31:49.288Z,14.03
2019-05-18T00:34:23.813Z,13.15
2019-05-18T00:36:57.941Z,36.38
2019-05-18T00:39:32.444Z,26.35
2019-05-18T00:42:06.670Z,15.38
2019-05-18T00:44:40.944Z,20.10
2019-05-18T00:47:15.370Z,17.35
2019-05-18T00:49:49.442Z,16.85
2019-05-18T00:52:23.707Z,21.55
2019-05-18T00:54:57.797Z,29.10
2019-05-18T00:57:32.057Z,32.95
2019-05-18T01:00:08.134Z,27.75
2019-05-18T01:02:42.550Z,26.45
2019-05-18T01:05:16.462Z,30.27
2019-05-18T01:07:50.529Z,25.92
2019-05-18T01:10:24.778Z,23.47
2019-05-18T01:12:59.225Z,24.20
2019-05-18T01:15:33.514Z,30.25
2019-05-18T01:18:07.746Z,35.10
2019-05-18T01:20:41.804Z,29.90
2019-05-18T01:23:16.150Z,25.50
2019-05-18T01:25:50.161Z,25.23
2019-05-18T01:28:24.271Z,24.98
2019-05-18T01:30:57.983Z,20.95
2019-05-18T01:33:31.789Z,18.77
2019-05-18T01:36:06.674Z,20.65
2019-05-18T01:38:40.461Z,21.90
2019-05-18T01:41:14.458Z,20.02
2019-05-18T01:43:48.963Z,22.93
2019-05-18T01:46:23.030Z,16.42
2019-05-18T01:48:57.156Z,20.70
2019-05-18T01:51:31.252Z,19.07
2019-05-18T01:54:05.409Z,18.65
2019-05-18T01:56:39.458Z,17.50
2019-05-18T01:59:13.557Z,16.02
2019-05-18T02:01:47.891Z,21.42
2019-05-18T02:04:22.105Z,18.52
2019-05-18T02:06:56.276Z,18.77
2019-05-18T02:09:30.541Z,17.32
2019-05-18T02:12:04.707Z,20.10
2019-05-18T02:14:38.952Z,20.10
2019-05-18T02:17:12.845Z,17.92
2019-05-18T02:19:46.773Z,17.70
2019-05-18T02:22:20.705Z,13.32
2019-05-18T02:24:54.908Z,13.43
2019-05-18T02:27:29.016Z,15.38
2019-05-18T02:30:02.961Z,14.65
2019-05-18T02:32:37.738Z,18.57
2019-05-18T02:35:11.839Z,14.78
2019-05-18T02:37:46.009Z,12.18
2019-05-18T02:40:20.370Z,16.02
2019-05-18T02:42:54.981Z,14.75
2019-05-18T02:45:29.373Z,11.20
2019-05-18T02:48:03.454Z,12.98
2019-05-18T02:50:37.795Z,18.00
2019-05-18T02:53:12.174Z,10.95
2019-05-18T02:55:46.158Z,19.55
2019-05-18T02:58:20.506Z,26.95
2019-05-18T03:00:54.684Z,25.00
2019-05-18T03:03:29.174Z,28.42
2019-05-18T03:06:03.396Z,17.50
2019-05-18T03:08:37.546Z,18.57
2019-05-18T03:11:12.267Z,20.62
2019-05-18T03:13:46.638Z,18.70
2019-05-18T03:16:21.101Z,21.00
2019-05-18T03:19:07.368Z,42.70
2019-05-18T03:21:32.193Z,31.57
2019-05-18T03:24:06.731Z,23.07
2019-05-18T03:26:40.897Z,22.75
2019-05-18T03:29:15.844Z,26.57
2019-05-18T03:31:49.967Z,27.52
2019-05-18T03:34:24.164Z,26.93
2019-05-18T03:36:58.391Z,23.65
2019-05-18T03:39:32.600Z,24.70
2019-05-18T03:42:06.985Z,25.65
2019-05-18T03:44:41.143Z,27.75
2019-05-18T03:47:15.229Z,25.97
2019-05-18T03:49:50.473Z,19.35
2019-05-18T03:52:24.595Z,31.75
2019-05-18T03:54:58.706Z,21.87
2019-05-18T03:57:33.003Z,27.45
2019-05-18T04:00:07.816Z,27.42
2019-05-18T04:02:41.839Z,46.00
2019-05-18T04:05:16.191Z,37.63
2019-05-18T04:07:50.404Z,49.10
2019-05-18T04:10:30.533Z,44.45
2019-05-18T04:13:04.665Z,41.35
2019-05-18T04:15:38.873Z,34.78
2019-05-18T04:18:13.104Z,49.85
2019-05-18T04:20:47.032Z,45.63
2019-05-18T04:23:21.098Z,51.48
2019-05-18T04:25:56.073Z,54.27
2019-05-18T04:28:30.176Z,42.10
2019-05-18T04:31:04.518Z,50.90
2019-05-18T04:33:38.629Z,43.98
2019-05-18T04:36:12.951Z,69.20
2019-05-18T04:38:46.973Z,64.42
2019-05-18T04:41:21.413Z,55.05
2019-05-18T04:43:55.733Z,61.33
2019-05-18T04:46:29.630Z,52.05
2019-05-18T04:49:03.911Z,42.83
2019-05-18T04:51:38.255Z,40.05
2019-05-18T04:54:12.550Z,40.95
2019-05-18T04:56:47.491Z,44.63
2019-05-18T04:59:21.321Z,45.28
2019-05-18T05:01:55.647Z,44.13
2019-05-18T05:04:29.779Z,42.17
2019-05-18T05:07:04.024Z,32.15
2019-05-18T05:09:38.392Z,35.52
2019-05-18T05:12:13.233Z,33.83
2019-05-18T05:14:59.544Z,29.05
2019-05-18T05:17:33.791Z,38.13
2019-05-18T05:20:19.440Z,39.10
2019-05-18T05:22:44.223Z,43.92
2019-05-18T05:25:18.575Z,51.95
2019-05-18T05:27:52.549Z,35.65
2019-05-18T05:30:26.532Z,39.23
2019-05-18T05:33:00.465Z,40.20
2019-05-18T05:35:37.611Z,41.30
2019-05-18T05:38:11.159Z,39.58
2019-05-18T05:40:45.384Z,37.35
2019-05-18T05:43:19.423Z,35.48
2019-05-18T05:45:53.650Z,40.92
2019-05-18T05:48:27.694Z,34.90
2019-05-18T05:51:02.271Z,39.80
2019-05-18T05:53:36.405Z,33.00
2019-05-18T05:56:10.304Z,30.85
2019-05-18T05:58:44.646Z,30.88
2019-05-18T06:01:18.939Z,34.70
2019-05-18T06:03:52.896Z,36.55
2019-05-18T06:06:26.749Z,31.55
2019-05-18T06:09:00.801Z,33.63
2019-05-18T06:11:35.184Z,42.73
2019-05-18T06:14:09.379Z,35.17
2019-05-18T06:16:43.395Z,25.77
2019-05-18T06:19:17.267Z,30.43
2019-05-18T06:21:51.388Z,33.78
2019-05-18T06:24:25.518Z,31.25
2019-05-18T06:26:59.520Z,27.15
2019-05-18T06:29:33.513Z,27.70
2019-05-18T06:32:07.635Z,30.48
2019-05-18T06:34:41.663Z,26.17
2019-05-18T06:37:15.757Z,29.77
2019-05-18T06:39:50.285Z,28.42
2019-05-18T06:42:24.598Z,31.57
2019-05-18T06:44:58.743Z,34.03
2019-05-18T06:47:33.908Z,33.60
2019-05-18T06:50:11.359Z,39.08
2019-05-18T06:52:43.865Z,211.82
2019-05-18T06:55:18.066Z,75.85
2019-05-18T06:57:52.542Z,56.37
2019-05-18T07:00:26.794Z,68.97
2019-05-18T07:03:02.697Z,71.77
2019-05-18T07:05:36.511Z,52.10
2019-05-18T07:08:13.226Z,51.00
2019-05-18T07:10:47.475Z,53.13
2019-05-18T07:13:21.478Z,48.48
2019-05-18T07:15:55.665Z,46.35
2019-05-18T07:18:29.436Z,40.43
2019-05-18T07:21:03.454Z,49.23
2019-05-18T07:23:37.256Z,35.90
2019-05-18T07:26:11.297Z,36.28
2019-05-18T07:28:45.312Z,41.08
2019-05-18T07:31:19.401Z,38.58
2019-05-18T07:33:53.262Z,36.60
2019-05-18T07:36:27.150Z,36.40
2019-05-18T07:39:01.213Z,37.85
2019-05-18T07:41:46.151Z,39.88
2019-05-18T07:44:20.496Z,34.38
2019-05-18T07:46:54.769Z,33.73
2019-05-18T07:49:28.882Z,25.17
2019-05-18T07:52:02.902Z,31.45
2019-05-18T07:54:36.798Z,32.45
2019-05-18T07:57:13.970Z,31.82
2019-05-18T07:59:47.903Z,29.90
2019-05-18T08:02:22.112Z,27.07
2019-05-18T08:04:56.264Z,34.85
2019-05-18T08:07:30.272Z,27.90
2019-05-18T08:10:04.432Z,41.42
2019-05-18T08:12:38.225Z,20.82
2019-05-18T08:15:13.885Z,26.82
2019-05-18T08:17:47.663Z,26.42
2019-05-18T08:20:21.569Z,23.40
2019-05-18T08:22:55.896Z,31.42
2019-05-18T08:25:30.260Z,26.82
2019-05-18T08:28:08.149Z,24.70
2019-05-18T08:30:42.021Z,26.75
2019-05-18T08:33:16.065Z,22.65
2019-05-18T08:35:50.237Z,26.10
2019-05-18T08:38:24.188Z,21.23
2019-05-18T08:40:58.288Z,20.35
2019-05-18T08:43:32.332Z,17.95
2019-05-18T08:46:06.340Z,23.32
2019-05-18T08:48:40.447Z,23.20
2019-05-18T08:51:14.369Z,22.00
2019-05-18T08:53:48.916Z,24.87
2019-05-18T08:56:23.923Z,24.20
2019-05-18T08:58:57.969Z,25.02
2019-05-18T09:01:31.744Z,22.55
2019-05-18T09:04:05.807Z,27.90
2019-05-18T09:06:39.793Z,22.00
2019-05-18T09:09:13.830Z,21.57
2019-05-18T09:11:47.793Z,31.82
2019-05-18T09:14:21.605Z,23.95
2019-05-18T09:16:55.628Z,22.58
2019-05-18T09:19:29.621Z,27.50
2019-05-18T09:22:03.434Z,25.40
2019-05-18T09:24:37.253Z,24.18
2019-05-18T09:27:13.734Z,23.50
2019-05-18T09:29:47.990Z,22.73
2019-05-18T09:32:22.148Z,24.45
2019-05-18T09:34:57.325Z,19.67
2019-05-18T09:37:31.427Z,19.92
2019-05-18T09:40:05.770Z,23.12
2019-05-18T09:42:39.808Z,21.17
2019-05-18T09:45:15.614Z,19.70
2019-05-18T09:47:49.445Z,21.48
2019-05-18T09:50:23.553Z,20.35
2019-05-18T09:52:57.880Z,20.23
2019-05-18T09:55:31.675Z,18.20
2019-05-18T09:58:06.019Z,20.80
2019-05-18T10:00:40.592Z,21.48
2019-05-18T10:03:15.391Z,17.73
2019-05-18T10:05:49.455Z,18.92
2019-05-18T10:08:23.560Z,19.30
2019-05-18T10:10:57.776Z,19.07
2019-05-18T10:13:33.631Z,19.48
2019-05-18T10:16:07.665Z,16.80
2019-05-18T10:18:42.033Z,23.50
2019-05-18T10:21:16.111Z,18.75
2019-05-18T10:23:50.239Z,18.52
2019-05-18T10:26:24.331Z,20.55
2019-05-18T10:28:58.340Z,18.45
2019-05-18T10:31:32.642Z,18.27
2019-05-18T10:34:06.955Z,17.77
2019-05-18T10:36:40.851Z,23.73
2019-05-18T10:39:15.447Z,15.58
2019-05-18T10:41:49.301Z,16.12
2019-05-18T10:44:23.422Z,18.40
2019-05-18T10:46:57.475Z,17.65
2019-05-18T10:49:31.384Z,22.48
2019-05-18T10:52:05.553Z,12.33
2019-05-18T10:54:39.880Z,15.75
2019-05-18T10:57:14.185Z,14.73
2019-05-18T10:59:48.940Z,19.27
2019-05-18T11:02:22.986Z,22.42
2019-05-18T11:04:57.204Z,20.15
2019-05-18T11:07:31.388Z,22.62
2019-05-18T11:10:05.732Z,20.40
2019-05-18T11:12:40.083Z,18.30
2019-05-18T11:15:15.880Z,23.32
2019-05-18T11:17:50.297Z,20.25
2019-05-18T11:20:24.895Z,18.37
2019-05-18T11:22:58.857Z,15.43
2019-05-18T11:25:33.333Z,22.35
2019-05-18T11:28:07.347Z,17.27
2019-05-18T11:30:41.403Z,29.05
2019-05-18T11:33:15.368Z,33.65
2019-05-18T11:35:49.525Z,37.40
2019-05-18T11:38:23.688Z,24.72
2019-05-18T11:40:57.950Z,32.88
2019-05-18T11:43:32.340Z,22.65
2019-05-18T11:46:06.607Z,20.92
2019-05-18T11:48:40.588Z,21.37
2019-05-18T11:51:14.651Z,25.60
2019-05-18T11:53:57.969Z,21.57
2019-05-18T11:56:24.310Z,26.35
2019-05-18T11:58:58.153Z,24.87
2019-05-18T12:01:32.379Z,24.23
2019-05-18T12:04:06.531Z,22.30
2019-05-18T12:06:40.645Z,19.73
2019-05-18T12:09:14.811Z,18.77
2019-05-18T12:11:48.696Z,21.35
2019-05-18T12:14:22.813Z,20.60
2019-05-18T12:16:57.073Z,15.78
2019-05-18T12:19:30.999Z,16.42
2019-05-18T12:22:04.902Z,13.88
2019-05-18T12:24:38.881Z,15.72
2019-05-18T12:27:13.010Z,15.55
2019-05-18T12:29:46.919Z,17.62
2019-05-18T12:32:20.825Z,17.48
2019-05-18T12:34:55.065Z,15.55
2019-05-18T12:37:28.959Z,18.90
2019-05-18T12:40:03.143Z,16.87
2019-05-18T12:42:37.338Z,18.67
2019-05-18T12:45:13.046Z,18.12
2019-05-18T12:47:48.126Z,18.37
2019-05-18T12:50:22.894Z,27.80
2019-05-18T12:52:56.895Z,27.87
2019-05-18T12:55:31.410Z,32.83
2019-05-18T12:58:05.674Z,35.85
2019-05-18T13:00:40.035Z,32.53
2019-05-18T13:03:14.046Z,39.40
2019-05-18T13:05:48.354Z,25.17
2019-05-18T13:08:23.207Z,28.70
2019-05-18T13:10:57.572Z,32.98
2019-05-18T13:13:31.635Z,32.83
2019-05-18T13:16:05.815Z,29.15
2019-05-18T13:18:39.868Z,22.10
2019-05-18T13:21:14.234Z,21.07
2019-05-18T13:23:48.072Z,27.48
2019-05-18T13:26:22.300Z,20.57
2019-05-18T13:28:56.316Z,25.75
2019-05-18T13:31:30.224Z,26.42
2019-05-18T13:34:04.385Z,24.63
2019-05-18T13:36:38.353Z,17.82
2019-05-18T13:39:12.710Z,26.85
2019-05-18T13:41:46.747Z,21.68
2019-05-18T13:44:21.034Z,21.77
2019-05-18T13:46:54.935Z,19.00
2019-05-18T13:49:29.294Z,21.95
2019-05-18T13:52:03.387Z,19.15
2019-05-18T13:54:37.681Z,17.60
2019-05-18T13:57:11.738Z,23.38
2019-05-18T13:59:45.761Z,20.72
2019-05-18T14:02:20.324Z,20.20
2019-05-18T14:04:54.368Z,20.62
2019-05-18T14:07:28.951Z,16.97
2019-05-18T14:10:03.121Z,21.82
2019-05-18T14:12:37.829Z,18.23
2019-05-18T14:15:13.490Z,21.17
2019-05-18T14:17:47.866Z,22.58
2019-05-18T14:20:22.563Z,19.05
2019-05-18T14:22:56.597Z,19.50
2019-05-18T14:25:31.665Z,18.27
2019-05-18T14:28:06.441Z,19.75
2019-05-18T14:30:40.578Z,19.67
2019-05-18T14:33:14.835Z,21.55
2019-05-18T14:35:48.949Z,21.17
2019-05-18T14:38:23.114Z,24.18
2019-05-18T14:40:56.961Z,18.55
2019-05-18T14:43:32.165Z,20.85
2019-05-18T14:46:06.447Z,21.93
2019-05-18T14:48:40.764Z,20.10
2019-05-18T14:51:14.873Z,18.70
2019-05-18T14:53:48.640Z,19.62
2019-05-18T14:56:22.824Z,16.50
2019-05-18T14:58:57.126Z,20.05
2019-05-18T15:01:31.072Z,21.48
2019-05-18T15:04:04.877Z,20.20
2019-05-18T15:06:39.419Z,21.82
2019-05-18T15:09:13.619Z,18.15
2019-05-18T15:11:47.958Z,16.85
2019-05-18T15:14:22.016Z,17.17
2019-05-18T15:16:56.245Z,15.72
2019-05-18T15:19:30.426Z,16.52
2019-05-18T15:22:04.669Z,17.62
2019-05-18T15:24:38.804Z,23.00
2019-05-18T15:27:12.700Z,20.17
2019-05-18T15:29:47.868Z,24.45
2019-05-18T15:32:21.919Z,18.40
2019-05-18T15:34:56.004Z,26.75
2019-05-18T15:37:30.132Z,28.65
2019-05-18T15:40:04.270Z,24.57
2019-05-18T15:42:38.348Z,27.75
2019-05-18T15:45:12.697Z,21.73
2019-05-18T15:47:46.934Z,27.37
2019-05-18T15:50:21.672Z,27.22
2019-05-18T15:52:55.526Z,21.60
2019-05-18T15:55:29.588Z,29.15
2019-05-18T15:58:03.546Z,25.35
2019-05-18T16:00:37.791Z,29.20
2019-05-18T16:03:14.838Z,25.92
2019-05-18T16:05:48.974Z,25.00
2019-05-18T16:08:23.267Z,23.10
2019-05-18T16:10:57.332Z,27.15
2019-05-18T16:13:31.398Z,29.40
2019-05-18T16:16:05.635Z,31.75
2019-05-18T16:18:39.676Z,26.15
2019-05-18T16:21:13.861Z,25.25
2019-05-18T16:23:48.034Z,24.15
2019-05-18T16:26:22.185Z,19.42
2019-05-18T16:28:56.273Z,24.77
2019-05-18T16:31:30.418Z,23.45
2019-05-18T16:34:04.833Z,21.65
2019-05-18T16:36:39.179Z,26.55
2019-05-18T16:39:13.133Z,21.55
2019-05-18T16:41:47.417Z,20.85
2019-05-18T16:44:21.578Z,21.68
2019-05-18T16:46:55.608Z,27.15
2019-05-18T16:49:29.948Z,25.15
2019-05-18T16:52:04.288Z,27.10
2019-05-18T16:54:38.404Z,20.62
2019-05-18T16:57:12.452Z,19.40
2019-05-18T16:59:46.416Z,24.18
2019-05-18T17:02:31.299Z,23.42
2019-05-18T17:04:57.485Z,22.62
2019-05-18T17:07:31.762Z,31.07
2019-05-18T17:10:06.969Z,37.30
2019-05-18T17:12:41.199Z,45.00
2019-05-18T17:15:16.456Z,38.63
2019-05-18T17:17:50.405Z,47.95
2019-05-18T17:20:24.798Z,57.35
2019-05-18T17:22:59.561Z,44.18
2019-05-18T17:25:33.574Z,67.22
2019-05-18T17:28:07.898Z,46.10
2019-05-18T17:30:42.918Z,42.05
2019-05-18T17:33:17.482Z,38.75
2019-05-18T17:35:59.924Z,39.78
2019-05-18T17:38:27.853Z,36.98
2019-05-18T17:41:01.831Z,35.48
2019-05-18T17:43:35.994Z,37.98
2019-05-18T17:46:09.894Z,35.38
2019-05-18T17:48:44.189Z,29.35
2019-05-18T17:51:18.438Z,26.73
2019-05-18T17:53:53.105Z,27.17
2019-05-18T17:56:27.170Z,35.35
2019-05-18T17:59:01.166Z,27.52
2019-05-18T18:01:35.228Z,25.02
2019-05-18T18:04:09.204Z,25.25
2019-05-18T18:06:43.190Z,25.95
2019-05-18T18:09:17.013Z,25.20
2019-05-18T18:11:50.997Z,21.65
2019-05-18T18:14:24.978Z,23.40
2019-05-18T18:16:59.025Z,21.30
2019-05-18T18:19:33.115Z,21.37
2019-05-18T18:22:07.394Z,18.65
2019-05-18T18:24:41.606Z,17.27
2019-05-18T18:27:24.556Z,17.23
2019-05-18T18:29:49.821Z,26.75
2019-05-18T18:32:23.696Z,18.55
2019-05-18T18:34:57.765Z,18.30
2019-05-18T18:37:31.932Z,23.25
2019-05-18T18:40:06.262Z,18.20
2019-05-18T18:42:40.363Z,18.73
2019-05-18T18:45:15.793Z,18.55
2019-05-18T18:47:49.632Z,14.35
2019-05-18T18:50:23.743Z,19.45
2019-05-18T18:52:57.975Z,12.75
2019-05-18T18:55:32.424Z,16.67
2019-05-18T18:58:06.649Z,16.12
2019-05-18T19:00:40.825Z,16.35
2019-05-18T19:03:15.260Z,17.37
2019-05-18T19:05:49.324Z,15.63
2019-05-18T19:08:23.455Z,16.30
2019-05-18T19:10:57.463Z,16.90
2019-05-18T19:13:31.799Z,14.68
2019-05-18T19:16:05.765Z,14.18
2019-05-18T19:18:39.905Z,13.53
2019-05-18T19:21:13.984Z,16.23
2019-05-18T19:23:48.051Z,13.85
2019-05-18T19:26:22.199Z,12.88
2019-05-18T19:28:56.343Z,14.20
2019-05-18T19:31:30.403Z,15.53
2019-05-18T19:34:04.843Z,14.93
2019-05-18T19:36:38.812Z,13.45
2019-05-18T19:39:13.131Z,12.78
2019-05-18T19:41:47.227Z,11.73
2019-05-18T19:44:23.923Z,12.82
2019-05-18T19:46:57.069Z,13.70
2019-05-18T19:49:31.264Z,13.68
2019-05-18T19:52:05.055Z,13.50
2019-05-18T19:54:39.102Z,15.05
2019-05-18T19:57:13.998Z,11.70
2019-05-18T19:59:48.187Z,15.00
2019-05-18T20:02:22.861Z,12.30
2019-05-18T20:05:07.140Z,13.88
2019-05-18T20:07:33.049Z,14.80
2019-05-18T20:10:07.700Z,16.57
2019-05-18T20:12:42.238Z,15.90
2019-05-18T20:15:16.577Z,14.80
2019-05-18T20:17:50.750Z,13.65
2019-05-18T20:20:24.893Z,13.48
2019-05-18T20:22:58.971Z,15.95
2019-05-18T20:25:32.939Z,15.38
2019-05-18T20:28:06.978Z,12.30
2019-05-18T20:30:41.016Z,15.23
2019-05-18T20:33:15.023Z,14.45
2019-05-18T20:35:49.350Z,15.93
2019-05-18T20:38:23.418Z,18.53
2019-05-18T20:41:57.236Z,16.75
2019-05-18T20:44:31.179Z,14.95
2019-05-18T20:47:05.228Z,16.20
2019-05-18T20:49:39.317Z,19.20
2019-05-18T20:52:13.489Z,25.90
2019-05-18T20:54:47.458Z,20.02
2019-05-18T20:57:21.490Z,23.42
2019-05-18T20:59:55.683Z,20.92
2019-05-18T21:02:29.623Z,15.72
2019-05-18T21:05:03.757Z,17.87
2019-05-18T21:07:37.971Z,18.25
2019-05-18T21:10:12.405Z,17.10
2019-05-18T21:12:46.716Z,17.85
2019-05-18T21:15:21.216Z,14.55
2019-05-18T21:17:55.510Z,18.27
2019-05-18T21:20:29.700Z,19.67
2019-05-18T21:23:04.098Z,20.20
2019-05-18T21:25:38.355Z,22.42
2019-05-18T21:28:12.423Z,17.87
2019-05-18T21:30:47.736Z,15.00
2019-05-18T21:33:21.716Z,17.40
2019-05-18T21:35:55.591Z,18.27
2019-05-18T21:38:29.948Z,16.40
2019-05-18T21:41:03.795Z,16.75
2019-05-18T21:43:38.897Z,16.30
2019-05-18T21:46:13.073Z,13.88
2019-05-18T21:48:47.392Z,16.30
2019-05-18T21:51:21.544Z,14.95
2019-05-18T21:53:55.596Z,16.73
2019-05-18T21:56:29.659Z,16.00
2019-05-18T21:59:11.664Z,15.58
2019-05-18T22:01:39.455Z,14.70
2019-05-18T22:04:13.876Z,13.98
2019-05-18T22:06:47.964Z,16.30
2019-05-18T22:09:22.049Z,14.80
2019-05-18T22:11:56.199Z,19.40
2019-05-18T22:14:30.271Z,17.90
2019-05-18T22:17:04.467Z,16.12
2019-05-18T22:19:38.453Z,17.70
2019-05-18T22:22:12.624Z,17.42
2019-05-18T22:24:46.677Z,17.10
2019-05-18T22:27:20.661Z,17.57
2019-05-18T22:29:54.476Z,17.87
2019-05-18T22:32:28.652Z,17.48
2019-05-18T22:35:02.524Z,15.35
2019-05-18T22:37:36.661Z,15.18
2019-05-18T22:40:10.824Z,17.70
2019-05-18T22:42:44.752Z,15.78
2019-05-18T22:45:18.907Z,16.93
2019-05-18T22:47:53.008Z,14.90
2019-05-18T22:50:27.551Z,19.20
2019-05-18T22:53:01.672Z,17.25
2019-05-18T22:55:35.709Z,16.65
2019-05-18T22:58:09.889Z,18.40
2019-05-18T23:00:43.852Z,19.32
2019-05-18T23:03:17.899Z,16.45
2019-05-18T23:05:52.166Z,15.48
2019-05-18T23:08:26.269Z,18.02
2019-05-18T23:11:00.080Z,16.95
2019-05-18T23:13:34.343Z,19.42
2019-05-18T23:16:08.307Z,15.58
2019-05-18T23:18:55.931Z,17.35
2019-05-18T23:21:18.417Z,16.32
2019-05-18T23:23:52.658Z,17.45
2019-05-18T23:26:26.900Z,16.73
2019-05-18T23:29:01.025Z,15.58
2019-05-18T23:31:35.269Z,15.70
2019-05-18T23:34:09.531Z,15.78
2019-05-18T23:36:43.804Z,16.05
2019-05-18T23:39:18.077Z,15.80
2019-05-18T23:41:51.886Z,17.12
2019-05-18T23:44:26.566Z,22.45
2019-05-18T23:47:00.800Z,19.40
2019-05-18T23:49:35.009Z,18.60
2019-05-18T23:52:09.144Z,16.32
2019-05-18T23:54:43.441Z,16.42
2019-05-18T23:57:17.408Z,20.52
2019-05-18T23:59:51.492Z,17.65
